Terminal Aerodrome Forecast
Issued by NWS Charleston, WV

Current Version | Previous Version | Graphics & Text | Print | Product List | Glossary On
Versions: 1 2 3 4 5 6 7 8 9 10 11 12 13 14 15 16 17 18 19 20 21 22
000
FTUS41 KRLX 151600 AAB
TAFCRW
TAF AMD
KCRW 151643Z 1517/1612 30011G19KT 5SM -SHSN BKN007 OVC015
      TEMPO 1517/1519 OVC015
     FM151900 32011G17KT P6SM OVC015
     FM152000 32010KT P6SM BKN025
     FM152100 32012G17KT P6SM BKN030
     FM160000 33010G15KT P6SM SCT040
     FM160300 31007KT P6SM SCT250=

USA.gov is the U.S. government's official web portal to all federal, state and local government web resources and services.